Home > Products > Valid Products > MTR

000
SAUS41 KRLX 010219 COR
MTRCRW
SPECI KCRW 010212Z COR 00000KT 6SM -RA BR FEW006 SCT038 BKN075
BKN130 22/22 A3006 RMK AO2 RAB01 PCPN VRY LGT VLY FG P0000 T02220222
$





000
SAUS41 KRLX 010205 COR
MTRCRW
METAR KCRW 010154Z 00000KT 8SM SCT060 BKN090 BKN150 OVC200 22/22
A3006 RMK AO2 SLP171 VLY FG PWR OK T02220222 $





000
SAUS41 KRLX 010100 COR
MTRCRW
METAR KCRW 010054Z 18004KT 10SM SCT038 BKN080 BKN100 23/22 A3006 RMK
AO2 RAE02 SLP171 VLY FG P0000 T02280222 $





000
SAUS41 KRLX 312200 COR
MTRCRW
METAR KCRW 312154Z 16005KT 10SM -RA SCT037 BKN048 BKN120 OVC200
24/22 A3006 RMK AO2 RAE15B52 SLP171 VLY FG P0000 T02390222 $





000
SAUS41 KRLX 312101 COR
MTRCRW
METAR KCRW 312054Z COR 00000KT 9SM -RA SCT037 BKN055 BKN120 OVC250
24/22 A3007 RMK AO2 RAE13B39 SLP173 P0000 60010 T02390217 56018 $





000
SAUS41 KRLX 311955
MTRCRW
METAR KCRW 311954Z 19005KT 7SM -RA SCT009 BKN031 BKN120 OVC250 23/22
A3008 RMK AO2 SLP177 VLY FG P0000 T02330217 $





000
SAUS41 KRLX 311954 COR
MTRCRW
SPECI KCRW 311947Z 20007KT 10SM -RA SCT009 BKN041 BKN120 OVC250
23/22 A3009 RMK AO2 VLY FG P0000 T02330217 $





000
SAUS41 KRLX 311648 COR
MTRCRW
SPECI KCRW 311641Z COR 25011KT 10SM -RA BKN024 BKN075 OVC120 25/21
A3013 RMK AO2 RAB1556 P0000 T02500211 $





000
SAUS41 KRLX 311558 COR
MTRCRW
SPECI KCRW 311547Z VRB05KT 10SM BKN027 BKN110 OVC210 27/21 A3012 RMK
AO2 T02670211





000
SAUS41 KRLX 311501 COR
MTRCRW
METAR KCRW 311454Z COR 22008KT 10SM SCT030 BKN190 25/21 A3011 RMK
AO2 SLP185 T02500206 58002





000
SAUS41 KRLX 311201 COR
MTRCRW
METAR KCRW 311154Z 20003KT 8SM FEW000 BKN190 21/21 A3011 RMK AO2
SLP187 FG FEW000 60029 70029 T02110211 10250 20211 53005





000
SAUS41 KRLX 310100 COR
MTRCRW
METAR KCRW 310054Z 00000KT 10SM SCT100 SCT300 26/22 A3007 RMK AO2
SLP170 T02610222





000
SAUS41 KRLX 302301 COR
MTRCRW
METAR KCRW 302254Z 21007KT 10SM FEW100 SCT170 SCT300 31/19 A3005 RMK
AO2 SLP166 T03060189





000
SAUS41 KRLX 302200 COR
MTRCRW
METAR KCRW 302154Z 21007KT 10SM FEW060 SCT100 SCT300 31/19 A3005 RMK
AO2 SLP165 T03110189





000
SAUS41 KRLX 302000 COR
MTRCRW
METAR KCRW 301954Z 19010KT 10SM SCT055TCU SCT120 SCT250 32/18 A3008
RMK AO2 SLP174 TCU ALQDS T03170178





    US Dept of Commerce
    National Oceanic and Atmospheric Administration
    National Weather Service
    1325 East West Highway
    Silver Spring, MD 20910
    Page Author: NWS Internet Services Team
Disclaimer
Information Quality
Credits
Glossary
Privacy Policy
Freedom of Information Act (FOIA)
About Us
Career Opportunities